MMTG

Details ICAO MMTG (TGZ)
Name ANGEL ALBINO CORZO
Region Mexico
Timezone America/Mexico_City (UTC-5.0)
Plans Departing 28
Arriving 21
Stats Elevation 1,491 ft / 454 m (AMSL)
Location 16.561821° -93.026082°
Runways 1
Magnetic Variation 2.043° E
Sunrise 2018-05-20 11:41:28 UTC / 2018-05-20 06:41:28 Local
Sunset 2018-05-21 00:38:40 UTC / 2018-05-20 19:38:40 Local
Advertisement - Login to hide

Runways

ID Width Length Bearing (true) Bearing (mag) Surface Threshold Offset Overrun Length
14 148 ft / 45 m 8,229 ft / 2,508 m 148.46° 146.42° Asphalt 0 ft / 0 m 0 ft / 0 m
32 148 ft / 45 m 8,229 ft / 2,508 m 328.46° 326.42° Asphalt 0 ft / 0 m 0 ft / 0 m

Map

Weather


0- 5 10 15 20 25 30 35+ Temperature / ° C

Clouds and Precipitation
Forecast for 2018-05-21 00:00 UTC. Updated 3 hours ago

Ground ~20,000 ft ~40,000 ft Winds

METAR

MMTG 210145Z 32004KT 6SM FEW018 SCT080 BKN300 27/23 A2984 RMK 8/463 CB DSTN S/E LTNG SSE

TAF

TAF MMTG 201710Z 2018/2118 34015KT P6SM SCT020 BKN080 BKN280 TEMPO 2021/2101 5SM -TSRA BKN020CB FM210400 14005KT 6SM HZ SCT015 BKN280 TEMPO 2110/2114 3SM BR HZ SCT010 BKN280 FM211500 30008KT 6SM HZ SCT020 SCT080 BKN280
Warning: Do not use this data for real-world aviation or navigation. No guarantee of current accuracy is given.